sensor_id;sensor_type;location;lat;lon;timestamp;temperature;humidity
678;DHT22;321;48.814;9.132;2023-05-16T00:01:41;13.50;99.90
678;DHT22;321;48.814;9.132;2023-05-16T00:04:06;13.50;99.90
678;DHT22;321;48.814;9.132;2023-05-16T00:06:32;13.60;99.90
678;DHT22;321;48.814;9.132;2023-05-16T00:08:59;13.80;99.90
678;DHT22;321;48.814;9.132;2023-05-16T00:11:25;13.70;99.90
678;DHT22;321;48.814;9.132;2023-05-16T00:13:51;13.70;99.90
678;DHT22;321;48.814;9.132;2023-05-16T00:16:17;13.70;99.90
678;DHT22;321;48.814;9.132;2023-05-16T00:18:46;13.70;99.90
678;DHT22;321;48.814;9.132;2023-05-16T00:21:11;13.70;99.90
678;DHT22;321;48.814;9.132;2023-05-16T00:23:38;13.70;99.90
678;DHT22;321;48.814;9.132;2023-05-16T00:26:03;13.70;99.90
678;DHT22;321;48.814;9.132;2023-05-16T00:28:29;13.70;99.90
678;DHT22;321;48.814;9.132;2023-05-16T00:30:54;13.60;99.90
678;DHT22;321;48.814;9.132;2023-05-16T00:33:20;13.60;99.90
678;DHT22;321;48.814;9.132;2023-05-16T00:43:03;13.80;99.90
678;DHT22;321;48.814;9.132;2023-05-16T00:47:55;14.10;99.90
678;DHT22;321;48.814;9.132;2023-05-16T00:50:21;13.70;99.90
678;DHT22;321;48.814;9.132;2023-05-16T00:52:46;13.80;99.90
678;DHT22;321;48.814;9.132;2023-05-16T00:55:12;13.70;99.90
678;DHT22;321;48.814;9.132;2023-05-16T00:57:38;13.70;99.90
678;DHT22;321;48.814;9.132;2023-05-16T01:00:06;13.80;99.90
678;DHT22;321;48.814;9.132;2023-05-16T01:02:35;13.70;99.90
678;DHT22;321;48.814;9.132;2023-05-16T01:05:02;13.50;99.90
678;DHT22;321;48.814;9.132;2023-05-16T01:07:29;13.50;99.90
678;DHT22;321;48.814;9.132;2023-05-16T01:09:55;13.50;99.90
678;DHT22;321;48.814;9.132;2023-05-16T01:15:13;13.40;99.90
678;DHT22;321;48.814;9.132;2023-05-16T01:18:07;13.40;99.90
678;DHT22;321;48.814;9.132;2023-05-16T01:20:59;13.40;99.90
678;DHT22;321;48.814;9.132;2023-05-16T01:23:46;13.20;99.90
678;DHT22;321;48.814;9.132;2023-05-16T01:26:26;13.20;99.90
678;DHT22;321;48.814;9.132;2023-05-16T01:28:53;13.70;99.90
678;DHT22;321;48.814;9.132;2023-05-16T01:31:20;13.10;99.90
678;DHT22;321;48.814;9.132;2023-05-16T01:33:46;13.60;99.90
678;DHT22;321;48.814;9.132;2023-05-16T01:36:37;13.00;99.90
678;DHT22;321;48.814;9.132;2023-05-16T01:39:16;13.00;99.90
678;DHT22;321;48.814;9.132;2023-05-16T01:44:59;12.70;99.90
678;DHT22;321;48.814;9.132;2023-05-16T01:47:26;12.90;99.90
678;DHT22;321;48.814;9.132;2023-05-16T01:50:12;12.90;99.90
678;DHT22;321;48.814;9.132;2023-05-16T01:53:06;13.70;99.90
678;DHT22;321;48.814;9.132;2023-05-16T01:55:44;12.80;99.90
678;DHT22;321;48.814;9.132;2023-05-16T01:58:15;12.80;99.90
678;DHT22;321;48.814;9.132;2023-05-16T02:00:41;12.90;99.90
678;DHT22;321;48.814;9.132;2023-05-16T02:03:08;13.20;99.90
678;DHT22;321;48.814;9.132;2023-05-16T02:05:34;12.90;99.90
678;DHT22;321;48.814;9.132;2023-05-16T02:08:00;13.00;99.90
678;DHT22;321;48.814;9.132;2023-05-16T02:10:26;13.00;99.90
678;DHT22;321;48.814;9.132;2023-05-16T02:12:52;13.00;99.90
678;DHT22;321;48.814;9.132;2023-05-16T02:15:18;13.10;99.90
678;DHT22;321;48.814;9.132;2023-05-16T02:17:44;13.60;99.90
678;DHT22;321;48.814;9.132;2023-05-16T02:20:10;13.10;99.90
678;DHT22;321;48.814;9.132;2023-05-16T02:22:36;13.10;99.90
678;DHT22;321;48.814;9.132;2023-05-16T02:25:04;13.10;99.90
678;DHT22;321;48.814;9.132;2023-05-16T02:27:30;13.10;99.90
678;DHT22;321;48.814;9.132;2023-05-16T02:29:55;13.10;99.90
678;DHT22;321;48.814;9.132;2023-05-16T02:32:21;13.00;99.90
678;DHT22;321;48.814;9.132;2023-05-16T02:34:46;13.10;99.90
678;DHT22;321;48.814;9.132;2023-05-16T02:37:12;13.10;99.90
678;DHT22;321;48.814;9.132;2023-05-16T02:39:38;13.20;99.90
678;DHT22;321;48.814;9.132;2023-05-16T02:42:05;13.10;99.90
678;DHT22;321;48.814;9.132;2023-05-16T02:44:31;13.20;99.90
678;DHT22;321;48.814;9.132;2023-05-16T02:46:56;13.20;99.90
678;DHT22;321;48.814;9.132;2023-05-16T02:49:22;13.10;99.90
678;DHT22;321;48.814;9.132;2023-05-16T02:51:47;13.10;99.90
678;DHT22;321;48.814;9.132;2023-05-16T02:54:14;13.10;99.90
678;DHT22;321;48.814;9.132;2023-05-16T02:56:39;13.20;99.90
678;DHT22;321;48.814;9.132;2023-05-16T02:59:05;13.20;99.90
678;DHT22;321;48.814;9.132;2023-05-16T03:01:33;13.10;99.90
678;DHT22;321;48.814;9.132;2023-05-16T03:03:58;13.10;99.90
678;DHT22;321;48.814;9.132;2023-05-16T03:06:24;13.10;99.90
678;DHT22;321;48.814;9.132;2023-05-16T03:08:49;13.20;99.90
678;DHT22;321;48.814;9.132;2023-05-16T03:11:16;13.10;99.90
678;DHT22;321;48.814;9.132;2023-05-16T03:13:44;13.10;99.90
678;DHT22;321;48.814;9.132;2023-05-16T03:16:10;13.10;99.90
678;DHT22;321;48.814;9.132;2023-05-16T03:18:36;13.00;99.90
678;DHT22;321;48.814;9.132;2023-05-16T03:21:01;13.00;99.90
678;DHT22;321;48.814;9.132;2023-05-16T03:23:27;13.00;99.90
678;DHT22;321;48.814;9.132;2023-05-16T03:25:53;13.00;99.90
678;DHT22;321;48.814;9.132;2023-05-16T03:28:21;13.00;99.90
678;DHT22;321;48.814;9.132;2023-05-16T03:30:46;13.00;99.90
678;DHT22;321;48.814;9.132;2023-05-16T03:33:12;13.10;99.90
678;DHT22;321;48.814;9.132;2023-05-16T03:35:38;13.10;99.90
678;DHT22;321;48.814;9.132;2023-05-16T03:38:04;13.20;99.90
678;DHT22;321;48.814;9.132;2023-05-16T03:40:29;13.10;99.90
678;DHT22;321;48.814;9.132;2023-05-16T03:42:55;13.10;99.90
678;DHT22;321;48.814;9.132;2023-05-16T03:45:20;13.10;99.90
678;DHT22;321;48.814;9.132;2023-05-16T03:47:48;13.10;99.90
678;DHT22;321;48.814;9.132;2023-05-16T03:50:13;13.10;99.90
678;DHT22;321;48.814;9.132;2023-05-16T03:52:39;13.10;99.90
678;DHT22;321;48.814;9.132;2023-05-16T03:55:05;13.20;99.90
678;DHT22;321;48.814;9.132;2023-05-16T03:57:32;13.20;99.90
678;DHT22;321;48.814;9.132;2023-05-16T03:59:58;13.30;99.90
678;DHT22;321;48.814;9.132;2023-05-16T04:02:23;13.30;99.90
678;DHT22;321;48.814;9.132;2023-05-16T04:04:49;13.80;99.90
678;DHT22;321;48.814;9.132;2023-05-16T04:07:14;13.30;99.90
678;DHT22;321;48.814;9.132;2023-05-16T04:09:40;13.30;99.90
678;DHT22;321;48.814;9.132;2023-05-16T04:12:06;13.30;99.90
678;DHT22;321;48.814;9.132;2023-05-16T04:14:33;13.20;99.90
678;DHT22;321;48.814;9.132;2023-05-16T04:16:58;13.40;99.90
678;DHT22;321;48.814;9.132;2023-05-16T04:21:50;13.60;99.90
678;DHT22;321;48.814;9.132;2023-05-16T04:24:16;13.60;99.90
678;DHT22;321;48.814;9.132;2023-05-16T04:26:42;13.70;99.90
678;DHT22;321;48.814;9.132;2023-05-16T04:29:08;13.80;99.90
678;DHT22;321;48.814;9.132;2023-05-16T04:31:33;13.80;99.90
678;DHT22;321;48.814;9.132;2023-05-16T04:33:59;13.90;99.90
678;DHT22;321;48.814;9.132;2023-05-16T04:36:25;14.00;99.90
678;DHT22;321;48.814;9.132;2023-05-16T04:38:55;14.00;99.90
678;DHT22;321;48.814;9.132;2023-05-16T04:41:21;14.10;99.90
678;DHT22;321;48.814;9.132;2023-05-16T04:43:47;14.00;99.90
678;DHT22;321;48.814;9.132;2023-05-16T04:46:13;14.00;99.90
678;DHT22;321;48.814;9.132;2023-05-16T04:48:39;14.10;99.90
678;DHT22;321;48.814;9.132;2023-05-16T04:51:05;14.20;99.90
678;DHT22;321;48.814;9.132;2023-05-16T04:53:31;14.10;99.90
678;DHT22;321;48.814;9.132;2023-05-16T04:55:56;14.20;99.90
678;DHT22;321;48.814;9.132;2023-05-16T04:58:22;14.10;99.90
678;DHT22;321;48.814;9.132;2023-05-16T05:00:50;15.00;99.90
678;DHT22;321;48.814;9.132;2023-05-16T05:03:15;14.30;99.90
678;DHT22;321;48.814;9.132;2023-05-16T05:05:42;14.40;99.90
678;DHT22;321;48.814;9.132;2023-05-16T05:08:08;14.30;99.90
678;DHT22;321;48.814;9.132;2023-05-16T05:10:34;14.40;99.90
678;DHT22;321;48.814;9.132;2023-05-16T05:13:00;14.20;99.90
678;DHT22;321;48.814;9.132;2023-05-16T05:15:25;14.30;99.90
678;DHT22;321;48.814;9.132;2023-05-16T05:17:51;14.30;99.90
678;DHT22;321;48.814;9.132;2023-05-16T05:20:17;14.50;99.90
678;DHT22;321;48.814;9.132;2023-05-16T05:22:42;14.60;99.90
678;DHT22;321;48.814;9.132;2023-05-16T05:25:08;14.70;99.90
678;DHT22;321;48.814;9.132;2023-05-16T05:27:34;14.60;99.90
678;DHT22;321;48.814;9.132;2023-05-16T05:30:00;14.50;99.90
678;DHT22;321;48.814;9.132;2023-05-16T05:32:26;14.60;99.90
678;DHT22;321;48.814;9.132;2023-05-16T05:34:51;14.60;99.90
678;DHT22;321;48.814;9.132;2023-05-16T05:54:22;14.40;99.90
678;DHT22;321;48.814;9.132;2023-05-16T06:16:17;15.00;99.90
678;DHT22;321;48.814;9.132;2023-05-16T06:26:01;15.20;99.90
678;DHT22;321;48.814;9.132;2023-05-16T06:33:20;15.30;99.90
678;DHT22;321;48.814;9.132;2023-05-16T07:22:02;14.90;99.90
678;DHT22;321;48.814;9.132;2023-05-16T07:26:53;14.90;99.90
678;DHT22;321;48.814;9.132;2023-05-16T07:53:39;14.90;99.90
678;DHT22;321;48.814;9.132;2023-05-16T08:03:24;14.90;99.90
678;DHT22;321;48.814;9.132;2023-05-16T08:08:16;15.20;99.90
678;DHT22;321;48.814;9.132;2023-05-16T08:35:03;14.70;99.90
678;DHT22;321;48.814;9.132;2023-05-16T08:47:17;14.60;99.90
678;DHT22;321;48.814;9.132;2023-05-16T08:49:46;14.60;99.90
678;DHT22;321;48.814;9.132;2023-05-16T08:54:39;14.60;99.90
678;DHT22;321;48.814;9.132;2023-05-16T09:06:51;15.10;99.90
678;DHT22;321;48.814;9.132;2023-05-16T09:21:31;15.70;99.90
678;DHT22;321;48.814;9.132;2023-05-16T09:24:07;15.60;99.90
678;DHT22;321;48.814;9.132;2023-05-16T09:26:35;15.50;99.90
678;DHT22;321;48.814;9.132;2023-05-16T09:31:28;15.60;99.90
678;DHT22;321;48.814;9.132;2023-05-16T09:34:08;15.50;99.90
678;DHT22;321;48.814;9.132;2023-05-16T09:43:54;15.30;99.90
678;DHT22;321;48.814;9.132;2023-05-16T09:46:25;16.30;99.90
678;DHT22;321;48.814;9.132;2023-05-16T09:51:21;15.40;99.90
678;DHT22;321;48.814;9.132;2023-05-16T09:56:14;15.60;99.90
678;DHT22;321;48.814;9.132;2023-05-16T09:58:42;15.80;99.90
678;DHT22;321;48.814;9.132;2023-05-16T10:01:09;15.80;99.90
678;DHT22;321;48.814;9.132;2023-05-16T10:03:37;15.90;99.90
678;DHT22;321;48.814;9.132;2023-05-16T10:06:04;16.20;99.90
678;DHT22;321;48.814;9.132;2023-05-16T10:08:31;16.40;99.90
678;DHT22;321;48.814;9.132;2023-05-16T10:13:31;16.50;99.90
678;DHT22;321;48.814;9.132;2023-05-16T10:15:59;16.70;99.90
678;DHT22;321;48.814;9.132;2023-05-16T10:18:30;17.00;99.90
678;DHT22;321;48.814;9.132;2023-05-16T10:20:59;17.30;99.90
678;DHT22;321;48.814;9.132;2023-05-16T10:23:27;17.40;99.90
678;DHT22;321;48.814;9.132;2023-05-16T10:25:54;17.90;99.90
678;DHT22;321;48.814;9.132;2023-05-16T10:33:14;17.70;99.90
678;DHT22;321;48.814;9.132;2023-05-16T10:38:10;17.20;99.90
678;DHT22;321;48.814;9.132;2023-05-16T10:40:39;17.00;99.90
678;DHT22;321;48.814;9.132;2023-05-16T10:43:06;16.60;99.90
678;DHT22;321;48.814;9.132;2023-05-16T10:48:01;15.90;99.90
678;DHT22;321;48.814;9.132;2023-05-16T10:50:38;15.70;99.90
678;DHT22;321;48.814;9.132;2023-05-16T11:04:03;14.90;99.90
678;DHT22;321;48.814;9.132;2023-05-16T11:14:40;14.60;99.90
678;DHT22;321;48.814;9.132;2023-05-16T11:25:06;13.90;99.90
678;DHT22;321;48.814;9.132;2023-05-16T11:27:43;13.80;99.90
678;DHT22;321;48.814;9.132;2023-05-16T11:32:42;14.10;99.90
678;DHT22;321;48.814;9.132;2023-05-16T11:35:10;14.10;99.90
678;DHT22;321;48.814;9.132;2023-05-16T11:40:07;14.10;99.90
678;DHT22;321;48.814;9.132;2023-05-16T11:42:36;14.10;99.90
678;DHT22;321;48.814;9.132;2023-05-16T11:45:06;14.10;99.90
678;DHT22;321;48.814;9.132;2023-05-16T12:07:02;14.50;99.90
678;DHT22;321;48.814;9.132;2023-05-16T12:14:22;14.70;99.90
678;DHT22;321;48.814;9.132;2023-05-16T12:21:40;15.10;99.90
678;DHT22;321;48.814;9.132;2023-05-16T12:24:09;15.10;99.90
678;DHT22;321;48.814;9.132;2023-05-16T12:26:39;15.10;99.90
678;DHT22;321;48.814;9.132;2023-05-16T12:29:04;15.30;99.90
678;DHT22;321;48.814;9.132;2023-05-16T12:31:38;15.50;99.90
678;DHT22;321;48.814;9.132;2023-05-16T12:34:12;15.50;99.90
678;DHT22;321;48.814;9.132;2023-05-16T12:36:38;15.70;99.90
678;DHT22;321;48.814;9.132;2023-05-16T12:44:08;15.80;99.90
678;DHT22;321;48.814;9.132;2023-05-16T12:46:40;15.60;99.90
678;DHT22;321;48.814;9.132;2023-05-16T12:49:06;15.60;99.90
678;DHT22;321;48.814;9.132;2023-05-16T12:51:32;15.40;99.90
678;DHT22;321;48.814;9.132;2023-05-16T12:54:10;15.10;99.90
678;DHT22;321;48.814;9.132;2023-05-16T12:56:39;15.00;99.90
678;DHT22;321;48.814;9.132;2023-05-16T12:59:05;14.80;99.90
678;DHT22;321;48.814;9.132;2023-05-16T13:18:34;14.50;99.90
678;DHT22;321;48.814;9.132;2023-05-16T13:25:54;14.80;99.90
678;DHT22;321;48.814;9.132;2023-05-16T13:30:45;14.60;99.90
678;DHT22;321;48.814;9.132;2023-05-16T13:50:13;14.80;99.90
678;DHT22;321;48.814;9.132;2023-05-16T13:52:39;14.80;99.90
678;DHT22;321;48.814;9.132;2023-05-16T13:55:05;14.90;99.90
678;DHT22;321;48.814;9.132;2023-05-16T14:07:17;14.40;99.90
678;DHT22;321;48.814;9.132;2023-05-16T14:14:35;14.70;99.90
678;DHT22;321;48.814;9.132;2023-05-16T14:17:01;14.80;99.90
678;DHT22;321;48.814;9.132;2023-05-16T14:19:28;15.10;99.90
678;DHT22;321;48.814;9.132;2023-05-16T14:21:54;15.20;99.90
678;DHT22;321;48.814;9.132;2023-05-16T14:24:20;15.00;99.90
678;DHT22;321;48.814;9.132;2023-05-16T14:26:46;14.70;99.90
678;DHT22;321;48.814;9.132;2023-05-16T14:31:38;14.80;99.90
678;DHT22;321;48.814;9.132;2023-05-16T14:36:30;15.00;99.90
678;DHT22;321;48.814;9.132;2023-05-16T14:41:22;15.30;99.90
678;DHT22;321;48.814;9.132;2023-05-16T14:55:58;15.10;99.90
678;DHT22;321;48.814;9.132;2023-05-16T15:05:43;15.10;99.90
678;DHT22;321;48.814;9.132;2023-05-16T15:08:08;14.70;99.90
678;DHT22;321;48.814;9.132;2023-05-16T15:15:26;13.30;99.90
678;DHT22;321;48.814;9.132;2023-05-16T15:17:52;15.00;99.90
678;DHT22;321;48.814;9.132;2023-05-16T15:27:37;15.60;99.90
678;DHT22;321;48.814;9.132;2023-05-16T16:01:41;15.30;99.90
678;DHT22;321;48.814;9.132;2023-05-16T16:08:59;14.90;99.90
678;DHT22;321;48.814;9.132;2023-05-16T16:11:26;14.80;99.90
678;DHT22;321;48.814;9.132;2023-05-16T16:13:51;14.80;99.90
678;DHT22;321;48.814;9.132;2023-05-16T16:26:04;14.50;99.90
678;DHT22;321;48.814;9.132;2023-05-16T16:35:50;14.60;99.90
678;DHT22;321;48.814;9.132;2023-05-16T16:38:18;14.70;99.90
678;DHT22;321;48.814;9.132;2023-05-16T16:57:46;14.70;99.90
678;DHT22;321;48.814;9.132;2023-05-16T17:05:05;14.80;99.90
678;DHT22;321;48.814;9.132;2023-05-16T17:07:31;14.90;99.90
678;DHT22;321;48.814;9.132;2023-05-16T17:46:34;15.20;99.90
678;DHT22;321;48.814;9.132;2023-05-16T18:42:40;13.30;99.90
678;DHT22;321;48.814;9.132;2023-05-16T19:43:31;11.30;99.90
678;DHT22;321;48.814;9.132;2023-05-16T19:45:58;11.30;99.90
678;DHT22;321;48.814;9.132;2023-05-16T19:50:56;11.30;99.90
678;DHT22;321;48.814;9.132;2023-05-16T19:58:14;11.20;99.90
678;DHT22;321;48.814;9.132;2023-05-16T20:20:09;11.00;99.90
678;DHT22;321;48.814;9.132;2023-05-16T20:44:41;11.10;99.90
678;DHT22;321;48.814;9.132;2023-05-16T20:49:33;11.30;99.90
678;DHT22;321;48.814;9.132;2023-05-16T21:50:31;10.60;99.90
678;DHT22;321;48.814;9.132;2023-05-16T22:00:15;10.60;99.90
678;DHT22;321;48.814;9.132;2023-05-16T22:12:27;10.40;99.90
678;DHT22;321;48.814;9.132;2023-05-16T22:22:11;10.20;99.90
678;DHT22;321;48.814;9.132;2023-05-16T23:40:08;8.70;99.90
